createdAt,value
2019-03-24T00:01:22.450Z,17.17
2019-03-24T00:03:49.924Z,11.07
2019-03-24T00:06:17.429Z,30.70
2019-03-24T00:08:44.898Z,18.57
2019-03-24T00:11:12.453Z,15.83
2019-03-24T00:13:40.215Z,22.80
2019-03-24T00:16:07.736Z,23.67
2019-03-24T00:18:35.209Z,11.10
2019-03-24T00:21:02.922Z,19.50
2019-03-24T00:23:30.379Z,16.10
2019-03-24T00:25:57.894Z,12.60
2019-03-24T00:28:25.394Z,13.63
2019-03-24T00:30:52.875Z,22.63
2019-03-24T00:33:20.538Z,10.20
2019-03-24T00:35:48.030Z,12.60
2019-03-24T00:38:15.489Z,16.83
2019-03-24T00:40:42.983Z,20.33
2019-03-24T00:43:10.462Z,15.17
2019-03-24T00:45:37.963Z,23.97
2019-03-24T00:48:05.628Z,13.53
2019-03-24T00:50:33.141Z,13.90
2019-03-24T00:53:00.627Z,17.83
2019-03-24T00:55:28.139Z,16.27
2019-03-24T00:57:55.618Z,22.93
2019-03-24T01:00:41.405Z,20.80
2019-03-24T01:03:08.885Z,10.13
2019-03-24T01:05:36.392Z,13.53
2019-03-24T01:08:04.000Z,15.37
2019-03-24T01:10:31.511Z,20.37
2019-03-24T01:12:58.970Z,24.07
2019-03-24T01:15:26.468Z,23.30
2019-03-24T01:17:53.930Z,18.47
2019-03-24T01:20:21.538Z,13.17
2019-03-24T01:22:49.111Z,17.17
2019-03-24T01:25:16.611Z,18.13
2019-03-24T01:27:44.078Z,21.23
2019-03-24T01:30:12.740Z,17.00
2019-03-24T01:32:40.214Z,23.93
2019-03-24T01:35:07.841Z,16.17
2019-03-24T01:37:35.294Z,22.77
2019-03-24T01:40:03.021Z,26.43
2019-03-24T01:42:30.487Z,15.90
2019-03-24T01:44:57.980Z,23.33
2019-03-24T01:47:25.426Z,18.27
2019-03-24T01:49:52.915Z,31.03
2019-03-24T01:52:20.383Z,10.97
2019-03-24T01:54:47.842Z,24.77
2019-03-24T01:57:15.331Z,23.97
2019-03-24T01:59:42.807Z,19.47
2019-03-24T02:02:10.467Z,15.20
2019-03-24T02:04:37.947Z,14.10
2019-03-24T02:07:05.464Z,19.37
2019-03-24T02:09:32.936Z,12.47
2019-03-24T02:12:01.298Z,15.40
2019-03-24T02:14:28.779Z,28.03
2019-03-24T02:16:56.285Z,18.17
2019-03-24T02:19:23.757Z,25.57
2019-03-24T02:21:51.279Z,29.27
2019-03-24T02:24:18.763Z,18.00
2019-03-24T02:26:46.271Z,25.27
2019-03-24T02:29:13.785Z,21.30
2019-03-24T02:31:41.307Z,23.17
2019-03-24T02:34:08.764Z,21.20
2019-03-24T02:36:36.254Z,20.80
2019-03-24T02:39:06.045Z,19.50
2019-03-24T02:41:33.537Z,22.80
2019-03-24T02:44:00.994Z,32.87
2019-03-24T02:46:28.502Z,14.13
2019-03-24T02:48:55.965Z,22.17
2019-03-24T02:51:23.449Z,28.57
2019-03-24T02:53:50.935Z,21.77
2019-03-24T02:56:18.732Z,22.27
2019-03-24T02:58:46.217Z,20.57
2019-03-24T03:01:13.716Z,21.97
2019-03-24T03:03:41.179Z,28.67
2019-03-24T03:06:08.689Z,26.57
2019-03-24T03:08:36.157Z,36.97
2019-03-24T03:11:04.066Z,23.60
2019-03-24T03:13:31.553Z,19.63
2019-03-24T03:15:59.072Z,19.83
2019-03-24T03:18:26.596Z,24.63
2019-03-24T03:20:54.118Z,35.50
2019-03-24T03:23:21.665Z,35.40
2019-03-24T03:25:49.213Z,32.07
2019-03-24T03:28:16.803Z,31.87
2019-03-24T03:30:44.341Z,32.00
2019-03-24T03:33:12.182Z,21.47
2019-03-24T03:35:39.745Z,27.67
2019-03-24T03:38:07.249Z,44.57
2019-03-24T03:40:34.781Z,25.67
2019-03-24T03:43:02.257Z,36.30
2019-03-24T03:45:29.781Z,30.30
2019-03-24T03:47:57.256Z,22.37
2019-03-24T03:50:24.750Z,36.17
2019-03-24T03:52:52.222Z,32.97
2019-03-24T03:55:19.709Z,34.00
2019-03-24T03:57:47.226Z,26.83
2019-03-24T04:00:14.830Z,28.57
2019-03-24T04:02:42.371Z,27.53
2019-03-24T04:05:10.084Z,41.70
2019-03-24T04:07:37.602Z,29.73
2019-03-24T04:10:06.064Z,36.20
2019-03-24T04:12:33.577Z,33.47
2019-03-24T04:15:01.103Z,34.90
2019-03-24T04:17:28.698Z,46.00
2019-03-24T04:19:56.286Z,34.77
2019-03-24T04:22:23.814Z,36.67
2019-03-24T04:24:51.273Z,37.67
2019-03-24T04:27:18.786Z,28.63
2019-03-24T04:29:46.290Z,37.50
2019-03-24T04:32:13.797Z,40.17
2019-03-24T04:34:41.324Z,38.40
2019-03-24T04:37:08.845Z,41.03
2019-03-24T04:39:36.315Z,37.50
2019-03-24T04:42:03.892Z,41.77
2019-03-24T04:44:31.403Z,38.73
2019-03-24T04:46:58.963Z,49.37
2019-03-24T04:49:26.463Z,39.13
2019-03-24T04:51:54.022Z,34.33
2019-03-24T04:54:21.517Z,50.40
2019-03-24T04:56:49.029Z,44.17
2019-03-24T04:59:16.552Z,38.40
2019-03-24T05:01:44.052Z,38.33
2019-03-24T05:04:11.566Z,44.47
2019-03-24T05:06:39.927Z,40.80
2019-03-24T05:09:07.421Z,35.37
2019-03-24T05:11:34.970Z,27.53
2019-03-24T05:14:02.463Z,34.63
2019-03-24T05:16:29.983Z,29.07
2019-03-24T05:18:57.464Z,33.27
2019-03-24T05:21:24.968Z,27.60
2019-03-24T05:23:52.454Z,27.20
2019-03-24T05:26:19.956Z,31.97
2019-03-24T05:28:47.436Z,34.20
2019-03-24T05:31:14.939Z,40.23
2019-03-24T05:33:42.456Z,29.33
2019-03-24T05:36:09.968Z,29.93
2019-03-24T05:38:37.472Z,31.27
2019-03-24T05:41:05.114Z,34.47
2019-03-24T05:43:32.663Z,34.90
2019-03-24T05:46:00.136Z,32.43
2019-03-24T05:48:27.654Z,24.20
2019-03-24T05:50:55.136Z,28.43
2019-03-24T05:53:22.697Z,33.37
2019-03-24T05:55:50.281Z,16.43
2019-03-24T05:58:17.978Z,38.83
2019-03-24T06:00:45.475Z,32.63
2019-03-24T06:03:13.116Z,29.33
2019-03-24T06:05:41.259Z,21.13
2019-03-24T06:08:08.832Z,34.27
2019-03-24T06:10:36.374Z,40.27
2019-03-24T06:13:03.958Z,29.73
2019-03-24T06:15:31.487Z,32.77
2019-03-24T06:17:58.981Z,32.27
2019-03-24T06:20:26.453Z,31.77
2019-03-24T06:22:54.006Z,30.20
2019-03-24T06:25:21.482Z,24.93
2019-03-24T06:27:49.052Z,34.57
2019-03-24T06:30:16.540Z,29.10
2019-03-24T06:32:44.064Z,32.23
2019-03-24T06:35:11.577Z,31.00
2019-03-24T06:37:39.075Z,35.17
2019-03-24T06:40:08.386Z,31.17
2019-03-24T06:42:35.916Z,32.13
2019-03-24T06:45:03.741Z,30.50
2019-03-24T06:47:31.258Z,32.00
2019-03-24T06:49:58.762Z,29.17
2019-03-24T06:52:26.263Z,31.47
2019-03-24T06:54:53.765Z,31.40
2019-03-24T06:57:21.264Z,27.20
2019-03-24T06:59:48.861Z,19.40
2019-03-24T07:02:16.963Z,36.33
2019-03-24T07:04:44.439Z,25.43
2019-03-24T07:07:12.320Z,33.43
2019-03-24T07:09:39.866Z,20.00
2019-03-24T07:12:07.391Z,29.63
2019-03-24T07:14:35.066Z,26.83
2019-03-24T07:17:04.090Z,21.90
2019-03-24T07:19:31.563Z,27.40
2019-03-24T07:21:59.077Z,26.37
2019-03-24T07:24:26.565Z,25.73
2019-03-24T07:26:54.122Z,24.73
2019-03-24T07:29:21.624Z,20.03
2019-03-24T07:31:49.196Z,29.80
2019-03-24T07:34:16.757Z,23.60
2019-03-24T07:36:44.363Z,19.07
2019-03-24T07:39:12.130Z,24.17
2019-03-24T07:41:39.653Z,30.77
2019-03-24T07:44:07.301Z,27.03
2019-03-24T07:46:35.092Z,24.60
2019-03-24T07:49:02.601Z,30.77
2019-03-24T07:51:30.133Z,20.43
2019-03-24T07:53:57.623Z,24.50
2019-03-24T07:56:25.128Z,22.93
2019-03-24T07:58:52.732Z,24.63
2019-03-24T08:01:20.216Z,18.37
2019-03-24T08:03:47.759Z,26.07
2019-03-24T08:06:15.298Z,20.53
2019-03-24T08:08:44.407Z,17.67
2019-03-24T08:11:12.161Z,22.27
2019-03-24T08:13:39.773Z,13.90
2019-03-24T08:16:07.306Z,17.77
2019-03-24T08:18:34.842Z,24.13
2019-03-24T08:21:02.330Z,24.73
2019-03-24T08:23:29.848Z,20.67
2019-03-24T08:25:57.365Z,25.03
2019-03-24T08:28:24.880Z,25.20
2019-03-24T08:30:52.370Z,31.57
2019-03-24T08:33:19.894Z,26.20
2019-03-24T08:35:47.396Z,23.77
2019-03-24T08:38:14.971Z,13.73
2019-03-24T08:40:42.461Z,24.97
2019-03-24T08:43:09.982Z,20.67
2019-03-24T08:45:37.460Z,19.90
2019-03-24T08:48:05.012Z,25.47
2019-03-24T08:50:32.462Z,37.70
2019-03-24T08:53:00.125Z,24.67
2019-03-24T08:55:27.883Z,18.07
2019-03-24T08:57:55.586Z,20.37
2019-03-24T09:00:30.512Z,17.03
2019-03-24T09:02:52.545Z,18.63
2019-03-24T09:05:20.033Z,17.73
2019-03-24T09:07:47.573Z,15.37
2019-03-24T09:10:15.063Z,17.47
2019-03-24T09:12:42.597Z,22.10
2019-03-24T09:15:10.077Z,15.27
2019-03-24T09:17:37.726Z,26.77
2019-03-24T09:20:05.761Z,26.00
2019-03-24T09:22:33.295Z,16.17
2019-03-24T09:25:00.770Z,26.97
2019-03-24T09:27:28.306Z,20.07
2019-03-24T09:29:55.971Z,13.47
2019-03-24T09:32:23.490Z,25.33
2019-03-24T09:34:51.021Z,23.83
2019-03-24T09:37:18.648Z,14.33
2019-03-24T09:39:46.162Z,10.67
2019-03-24T09:42:13.704Z,18.23
2019-03-24T09:44:41.201Z,11.90
2019-03-24T09:47:08.753Z,22.73
2019-03-24T09:49:36.289Z,20.33
2019-03-24T09:52:03.803Z,16.87
2019-03-24T09:54:31.370Z,18.60
2019-03-24T09:56:59.098Z,21.57
2019-03-24T09:59:26.656Z,22.13
2019-03-24T10:01:54.191Z,20.10
2019-03-24T10:04:21.711Z,16.57
2019-03-24T10:06:49.267Z,16.53
2019-03-24T10:09:16.809Z,11.33
2019-03-24T10:11:44.342Z,7.37
2019-03-24T10:14:11.897Z,16.47
2019-03-24T10:16:39.404Z,14.67
2019-03-24T10:19:13.861Z,13.03
2019-03-24T10:21:36.361Z,13.93
2019-03-24T10:24:03.886Z,6.13
2019-03-24T10:26:31.384Z,11.00
2019-03-24T10:28:58.918Z,13.00
2019-03-24T10:31:26.426Z,8.33
2019-03-24T10:33:54.064Z,13.10
2019-03-24T10:36:21.573Z,7.63
2019-03-24T10:38:49.105Z,7.83
2019-03-24T10:41:16.626Z,14.47
2019-03-24T10:43:44.151Z,6.53
2019-03-24T10:46:11.659Z,4.53
2019-03-24T10:48:39.244Z,7.23
2019-03-24T10:51:06.857Z,5.83
2019-03-24T10:53:34.374Z,7.00
2019-03-24T10:56:01.866Z,8.40
2019-03-24T10:58:29.703Z,6.57
2019-03-24T11:00:57.524Z,6.73
2019-03-24T11:03:25.209Z,6.27
2019-03-24T11:05:52.847Z,7.90
2019-03-24T11:08:20.335Z,5.50
2019-03-24T11:10:47.923Z,6.20
2019-03-24T11:13:15.511Z,5.47
2019-03-24T11:15:43.025Z,8.97
2019-03-24T11:18:10.514Z,6.23
2019-03-24T11:20:38.056Z,5.73
2019-03-24T11:23:05.610Z,4.47
2019-03-24T11:25:33.121Z,7.93
2019-03-24T11:28:00.601Z,7.30
2019-03-24T11:30:28.372Z,6.40
2019-03-24T11:32:55.958Z,4.20
2019-03-24T11:35:23.510Z,4.97
2019-03-24T11:37:51.011Z,7.63
2019-03-24T11:40:18.701Z,12.57
2019-03-24T11:42:46.306Z,7.33
2019-03-24T11:45:15.370Z,5.80
2019-03-24T11:47:42.860Z,7.57
2019-03-24T11:50:10.928Z,7.07
2019-03-24T11:52:38.443Z,9.40
2019-03-24T11:55:07.271Z,6.67
2019-03-24T11:57:34.897Z,6.00
2019-03-24T12:00:03.282Z,5.63
2019-03-24T12:02:31.543Z,7.53
2019-03-24T12:04:59.180Z,10.13
2019-03-24T12:07:26.689Z,3.00
2019-03-24T12:09:54.323Z,8.47
2019-03-24T12:12:21.983Z,9.37
2019-03-24T12:14:50.159Z,12.53
2019-03-24T12:17:17.820Z,11.63
2019-03-24T12:19:56.274Z,7.53
2019-03-24T12:22:15.230Z,8.17
2019-03-24T12:24:42.879Z,6.80
2019-03-24T12:27:10.378Z,8.70
2019-03-24T12:29:37.923Z,8.70
2019-03-24T12:32:05.582Z,7.83
2019-03-24T12:34:33.121Z,8.40
2019-03-24T12:37:00.651Z,5.20
2019-03-24T12:39:28.637Z,6.93
2019-03-24T12:41:56.163Z,4.20
2019-03-24T12:44:23.678Z,5.07
2019-03-24T12:46:51.229Z,9.23
2019-03-24T12:49:18.781Z,10.67
2019-03-24T12:51:46.328Z,4.70
2019-03-24T12:54:14.017Z,9.47
2019-03-24T12:56:41.653Z,9.40
2019-03-24T12:59:09.180Z,9.10
2019-03-24T13:01:36.738Z,7.40
2019-03-24T13:04:04.487Z,10.87
2019-03-24T13:06:32.104Z,8.87
2019-03-24T13:08:59.720Z,6.13
2019-03-24T13:11:28.351Z,7.20
2019-03-24T13:13:56.358Z,8.40
2019-03-24T13:16:23.953Z,6.90
2019-03-24T13:18:51.505Z,7.80
2019-03-24T13:21:19.245Z,5.90
2019-03-24T13:23:46.975Z,7.50
2019-03-24T13:26:15.011Z,5.47
2019-03-24T13:28:42.510Z,6.50
2019-03-24T13:31:10.040Z,10.93
2019-03-24T13:33:37.826Z,11.73
2019-03-24T13:36:10.561Z,6.43
2019-03-24T13:38:38.148Z,7.10
2019-03-24T13:41:06.511Z,6.00
2019-03-24T13:43:34.044Z,10.10
2019-03-24T13:46:01.913Z,2.60
2019-03-24T13:48:29.402Z,4.70
2019-03-24T13:50:56.923Z,7.83
2019-03-24T13:53:24.472Z,5.07
2019-03-24T13:55:52.040Z,8.40
2019-03-24T13:58:19.635Z,6.30
2019-03-24T14:00:47.232Z,4.87
2019-03-24T14:03:14.726Z,14.03
2019-03-24T14:05:42.298Z,7.53
2019-03-24T14:08:09.829Z,5.73
2019-03-24T14:10:37.395Z,11.67
2019-03-24T14:13:04.885Z,7.53
2019-03-24T14:15:32.394Z,9.07
2019-03-24T14:17:59.917Z,5.77
2019-03-24T14:20:27.440Z,5.40
2019-03-24T14:22:55.410Z,15.23
2019-03-24T14:25:23.043Z,3.90
2019-03-24T14:27:50.701Z,4.20
2019-03-24T14:30:28.372Z,3.23
2019-03-24T14:32:55.930Z,4.10
2019-03-24T14:35:23.438Z,2.70
2019-03-24T14:37:50.981Z,9.90
2019-03-24T14:40:18.530Z,8.73
2019-03-24T14:42:46.134Z,3.50
2019-03-24T14:45:13.645Z,7.10
2019-03-24T14:47:41.209Z,1.20
2019-03-24T14:50:09.016Z,5.90
2019-03-24T14:52:36.571Z,10.20
2019-03-24T14:55:04.647Z,2.53
2019-03-24T14:57:32.189Z,4.83
2019-03-24T14:59:59.770Z,6.67
2019-03-24T15:02:27.372Z,6.67
2019-03-24T15:04:54.980Z,4.77
2019-03-24T15:07:22.688Z,6.50
2019-03-24T15:09:50.282Z,4.40
2019-03-24T15:12:17.912Z,6.17
2019-03-24T15:14:45.499Z,5.10
2019-03-24T15:17:13.141Z,6.70
2019-03-24T15:19:40.693Z,4.37
2019-03-24T15:22:08.363Z,3.50
2019-03-24T15:24:35.892Z,7.80
2019-03-24T15:27:04.120Z,4.47
2019-03-24T15:29:31.798Z,7.37
2019-03-24T15:31:59.387Z,5.53
2019-03-24T15:34:26.971Z,10.03
2019-03-24T15:36:54.506Z,8.93
2019-03-24T15:39:22.255Z,8.90
2019-03-24T15:41:49.829Z,4.03
2019-03-24T15:44:17.345Z,6.63
2019-03-24T15:46:44.973Z,7.50
2019-03-24T15:49:12.524Z,5.20
2019-03-24T15:51:40.163Z,11.80
2019-03-24T15:54:07.849Z,7.10
2019-03-24T15:56:35.393Z,8.20
2019-03-24T15:59:03.212Z,16.03
2019-03-24T16:01:30.746Z,13.60
2019-03-24T16:03:58.291Z,9.73
2019-03-24T16:06:25.962Z,10.90
2019-03-24T16:08:53.537Z,10.90
2019-03-24T16:11:21.132Z,8.37
2019-03-24T16:13:48.693Z,14.43
2019-03-24T16:16:16.253Z,12.97
2019-03-24T16:18:53.061Z,14.43
2019-03-24T16:21:27.654Z,12.80
2019-03-24T16:23:50.123Z,7.80
2019-03-24T16:26:17.662Z,14.73
2019-03-24T16:28:45.182Z,10.53
2019-03-24T16:31:12.769Z,6.37
2019-03-24T16:33:40.350Z,8.07
2019-03-24T16:36:07.868Z,7.03
2019-03-24T16:38:35.392Z,7.97
2019-03-24T16:41:02.901Z,7.37
2019-03-24T16:43:30.402Z,6.03
2019-03-24T16:45:57.901Z,8.43
2019-03-24T16:48:36.206Z,6.90
2019-03-24T16:50:54.855Z,9.80
2019-03-24T16:53:22.547Z,8.67
2019-03-24T16:55:50.165Z,14.73
2019-03-24T16:58:17.737Z,7.77
2019-03-24T17:00:45.276Z,5.83
2019-03-24T17:03:12.822Z,8.80
2019-03-24T17:05:40.309Z,6.53
2019-03-24T17:08:07.932Z,5.10
2019-03-24T17:10:35.429Z,5.17
2019-03-24T17:13:02.979Z,5.93
2019-03-24T17:15:30.543Z,8.37
2019-03-24T17:17:58.070Z,4.50
2019-03-24T17:20:25.601Z,9.23
2019-03-24T17:22:53.174Z,8.77
2019-03-24T17:25:20.701Z,9.20
2019-03-24T17:27:48.188Z,5.30
2019-03-24T17:30:16.051Z,15.57
2019-03-24T17:32:43.551Z,7.07
2019-03-24T17:35:11.293Z,5.10
2019-03-24T17:37:38.833Z,11.93
2019-03-24T17:40:08.000Z,10.50
2019-03-24T17:42:35.512Z,9.87
2019-03-24T17:45:03.493Z,17.37
2019-03-24T17:47:31.038Z,7.60
2019-03-24T17:49:58.684Z,8.13
2019-03-24T17:52:26.392Z,9.73
2019-03-24T17:54:54.113Z,4.97
2019-03-24T17:57:21.658Z,18.03
2019-03-24T17:59:49.238Z,3.57
2019-03-24T18:02:16.783Z,6.97
2019-03-24T18:04:47.341Z,8.27
2019-03-24T18:07:14.822Z,8.17
2019-03-24T18:09:42.334Z,9.73
2019-03-24T18:12:09.833Z,7.57
2019-03-24T18:14:37.366Z,13.77
2019-03-24T18:17:04.882Z,8.77
2019-03-24T18:19:32.438Z,7.43
2019-03-24T18:21:59.918Z,14.03
2019-03-24T18:24:27.488Z,9.33
2019-03-24T18:26:54.962Z,16.03
2019-03-24T18:29:22.506Z,14.07
2019-03-24T18:31:50.013Z,10.67
2019-03-24T18:34:17.609Z,9.30
2019-03-24T18:36:45.117Z,12.23
2019-03-24T18:39:12.702Z,10.33
2019-03-24T18:41:40.193Z,9.33
2019-03-24T18:44:07.753Z,6.63
2019-03-24T18:46:35.424Z,12.20
2019-03-24T18:49:03.091Z,9.43
2019-03-24T18:51:30.691Z,16.53
2019-03-24T18:53:58.258Z,8.33
2019-03-24T18:56:25.839Z,10.83
2019-03-24T18:58:53.368Z,10.90
2019-03-24T19:01:20.892Z,17.03
2019-03-24T19:03:48.414Z,6.70
2019-03-24T19:06:16.042Z,7.17
2019-03-24T19:08:43.587Z,11.93
2019-03-24T19:11:11.109Z,11.40
2019-03-24T19:13:38.621Z,7.97
2019-03-24T19:16:06.120Z,8.47
2019-03-24T19:18:33.699Z,10.67
2019-03-24T19:21:02.918Z,14.73
2019-03-24T19:23:30.451Z,7.57
2019-03-24T19:25:59.666Z,6.27
2019-03-24T19:28:27.216Z,8.60
2019-03-24T19:30:54.742Z,9.63
2019-03-24T19:33:22.261Z,8.73
2019-03-24T19:35:49.774Z,7.40
2019-03-24T19:38:17.286Z,10.03
2019-03-24T19:40:44.891Z,12.50
2019-03-24T19:43:12.421Z,5.10
2019-03-24T19:45:39.937Z,8.37
2019-03-24T19:48:07.456Z,7.43
2019-03-24T19:50:34.981Z,11.40
2019-03-24T19:53:02.721Z,6.73
2019-03-24T19:55:30.250Z,6.63
2019-03-24T19:57:57.848Z,8.37
2019-03-24T20:00:25.549Z,11.77
2019-03-24T20:02:53.020Z,7.17
2019-03-24T20:05:20.553Z,6.67
2019-03-24T20:07:48.536Z,6.43
2019-03-24T20:10:16.169Z,10.17
2019-03-24T20:12:43.791Z,9.57
2019-03-24T20:15:11.411Z,4.77
2019-03-24T20:17:38.910Z,5.27
2019-03-24T20:20:06.497Z,6.77
2019-03-24T20:22:34.012Z,10.17
2019-03-24T20:25:01.526Z,7.23
2019-03-24T20:27:29.170Z,10.93
2019-03-24T20:29:56.656Z,12.93
2019-03-24T20:32:24.169Z,8.40
2019-03-24T20:34:51.725Z,10.07
2019-03-24T20:37:20.610Z,6.30
2019-03-24T20:39:48.105Z,4.87
2019-03-24T20:42:15.660Z,5.40
2019-03-24T20:44:43.156Z,6.23
2019-03-24T20:47:10.664Z,7.27
2019-03-24T20:49:40.849Z,8.73
2019-03-24T20:52:09.583Z,5.07
2019-03-24T20:54:37.374Z,7.70
2019-03-24T20:57:04.932Z,9.20
2019-03-24T20:59:32.437Z,8.97
2019-03-24T21:01:59.984Z,7.90
2019-03-24T21:04:27.486Z,6.23
2019-03-24T21:06:55.048Z,9.73
2019-03-24T21:09:22.889Z,7.20
2019-03-24T21:11:50.655Z,6.90
2019-03-24T21:14:18.222Z,11.60
2019-03-24T21:16:46.093Z,6.07
2019-03-24T21:19:13.646Z,5.93
2019-03-24T21:21:41.285Z,6.67
2019-03-24T21:24:08.836Z,5.37
2019-03-24T21:26:36.354Z,7.20
2019-03-24T21:29:03.990Z,10.27
2019-03-24T21:31:31.727Z,6.33
2019-03-24T21:33:59.354Z,5.07
2019-03-24T21:36:26.946Z,8.23
2019-03-24T21:38:54.632Z,8.13
2019-03-24T21:41:22.344Z,9.73
2019-03-24T21:43:50.159Z,6.57
2019-03-24T21:46:17.988Z,8.93
2019-03-24T21:48:45.657Z,6.77
2019-03-24T21:51:13.389Z,8.03
2019-03-24T21:53:41.146Z,11.73
2019-03-24T21:56:08.804Z,8.43
2019-03-24T21:58:36.525Z,13.63
2019-03-24T22:01:04.347Z,15.90
2019-03-24T22:03:32.095Z,10.50
2019-03-24T22:05:59.625Z,10.57
2019-03-24T22:08:27.626Z,9.40
2019-03-24T22:10:55.218Z,7.63
2019-03-24T22:13:22.846Z,7.33
2019-03-24T22:15:50.519Z,7.30
2019-03-24T22:18:18.287Z,10.47
2019-03-24T22:20:49.088Z,13.70
2019-03-24T22:23:15.394Z,7.30
2019-03-24T22:25:42.897Z,11.33
2019-03-24T22:28:10.463Z,7.90
2019-03-24T22:30:37.956Z,14.17
2019-03-24T22:33:05.514Z,10.73
2019-03-24T22:35:33.024Z,12.37
2019-03-24T22:38:02.357Z,8.90
2019-03-24T22:40:29.831Z,5.97
2019-03-24T22:42:57.328Z,7.03
2019-03-24T22:45:24.842Z,10.50
2019-03-24T22:47:52.406Z,17.00
2019-03-24T22:50:19.900Z,7.47
2019-03-24T22:52:47.427Z,11.93
2019-03-24T22:55:15.007Z,4.73
2019-03-24T22:57:42.549Z,11.70
2019-03-24T23:00:17.524Z,15.30
2019-03-24T23:02:45.036Z,10.07
2019-03-24T23:05:12.612Z,8.40
2019-03-24T23:07:40.124Z,9.67
2019-03-24T23:10:07.698Z,5.53
2019-03-24T23:12:35.217Z,7.60
2019-03-24T23:15:02.774Z,10.90
2019-03-24T23:17:30.287Z,9.20
2019-03-24T23:19:57.862Z,9.73
2019-03-24T23:22:25.408Z,12.80
2019-03-24T23:24:52.996Z,12.10
2019-03-24T23:27:20.567Z,8.90
2019-03-24T23:29:48.045Z,8.43
2019-03-24T23:32:15.568Z,8.30
2019-03-24T23:34:43.122Z,11.00
2019-03-24T23:37:10.592Z,11.10
2019-03-24T23:39:38.090Z,17.53
2019-03-24T23:42:05.555Z,8.53
2019-03-24T23:44:33.049Z,11.87
2019-03-24T23:47:00.568Z,11.80
2019-03-24T23:49:28.240Z,11.47
2019-03-24T23:51:55.776Z,11.47
2019-03-24T23:54:27.251Z,20.27
2019-03-24T23:56:52.723Z,19.10
2019-03-24T23:59:20.281Z,9.33
